Time;durP1;ratioP1;P1;durP2;ratioP2;P2;SDS_P1;SDS_P2;PMS_P1;PMS_P2;Temp;Humidity;BMP_temperature;BMP_pressure;BME280_temperature;BME280_humidity;BME280_pressure;Samples;Min_cycle;Max_cycle;Signal;HPM_P1;HPM_P2
2022/06/08 00:00:20;;;;;;;10.83;9.00;;;;;;;;;;4910838;28;20223;-71
2022/06/08 00:02:58;;;;;;;10.17;9.17;;;;;;;;;;4896885;29;20911;-71
2022/06/08 00:05:26;;;;;;;10.20;9.30;;;;;;;;;;4898574;28;20711;-70
2022/06/08 00:07:52;;;;;;;10.90;9.50;;;;;;;;;;4905711;29;20729;-70
2022/06/08 00:10:18;;;;;;;10.83;9.83;;;;;;;;;;4927423;28;20238;-70
2022/06/08 00:12:45;;;;;;;10.70;9.60;;;;;;;;;;4897885;29;20231;-70
2022/06/08 00:15:11;;;;;;;11.90;9.70;;;;;;;;;;4906079;28;20269;-70
2022/06/08 00:17:37;;;;;;;10.43;9.53;;;;;;;;;;4913081;29;20227;-70
2022/06/08 00:20:09;;;;;;;10.73;9.13;;;;;;;;;;4896216;28;20230;-69
2022/06/08 00:22:38;;;;;;;11.73;9.27;;;;;;;;;;4906573;29;20500;-70
2022/06/08 00:25:04;;;;;;;10.77;9.67;;;;;;;;;;4906655;28;20282;-69
2022/06/08 00:27:30;;;;;;;12.53;10.63;;;;;;;;;;4881398;29;20223;-71
2022/06/08 00:29:56;;;;;;;10.73;9.63;;;;;;;;;;4897145;29;20243;-71
2022/06/08 00:32:22;;;;;;;11.73;10.53;;;;;;;;;;4911285;29;22064;-70
2022/06/08 00:34:50;;;;;;;11.03;10.03;;;;;;;;;;4928603;29;20223;-70
2022/06/08 00:37:16;;;;;;;12.03;10.83;;;;;;;;;;4928084;28;21032;-70
2022/06/08 00:39:48;;;;;;;11.30;9.83;;;;;;;;;;4944400;28;20228;-70
2022/06/08 00:42:16;;;;;;;11.30;10.30;;;;;;;;;;4895908;28;20807;-71
2022/06/08 00:45:04;;;;;;;11.00;9.90;;;;;;;;;;4909220;29;20719;-70
2022/06/08 00:47:35;;;;;;;10.77;9.63;;;;;;;;;;4916025;29;20227;-70
2022/06/08 00:50:13;;;;;;;10.77;9.77;;;;;;;;;;4922298;29;20325;-70
2022/06/08 00:52:39;;;;;;;9.87;9.07;;;;;;;;;;4915263;29;20705;-70
2022/06/08 00:55:08;;;;;;;10.87;9.87;;;;;;;;;;4896036;28;20238;-71
2022/06/08 00:57:57;;;;;;;11.70;10.60;;;;;;;;;;4882619;29;20224;-70
2022/06/08 01:00:39;;;;;;;10.93;9.93;;;;;;;;;;4899802;28;20793;-71
2022/06/08 01:03:11;;;;;;;12.03;10.73;;;;;;;;;;4920017;28;20242;-71
2022/06/08 01:06:05;;;;;;;11.80;10.70;;;;;;;;;;4914693;29;20697;-70
2022/06/08 01:08:38;;;;;;;11.17;10.17;;;;;;;;;;4930883;28;20226;-70
2022/06/08 01:11:16;;;;;;;11.50;10.40;;;;;;;;;;4924726;28;20226;-72
2022/06/08 01:13:42;;;;;;;11.67;10.47;;;;;;;;;;4923657;29;20239;-70
2022/06/08 01:16:13;;;;;;;10.53;9.63;;;;;;;;;;4909972;28;20238;-70
2022/06/08 01:18:40;;;;;;;12.33;11.13;;;;;;;;;;4897862;29;20227;-71
2022/06/08 01:21:21;;;;;;;10.90;9.87;;;;;;;;;;4945267;28;20305;-71
2022/06/08 01:23:59;;;;;;;10.67;9.77;;;;;;;;;;4929732;28;20424;-70
2022/06/08 01:26:49;;;;;;;10.53;9.57;;;;;;;;;;4909020;28;20263;-71
2022/06/08 01:29:31;;;;;;;10.80;9.80;;;;;;;;;;4928656;28;20302;-71
2022/06/08 01:32:09;;;;;;;10.23;9.30;;;;;;;;;;4914087;29;20227;-71
2022/06/08 01:34:55;;;;;;;10.13;9.27;;;;;;;;;;4933751;28;20241;-70
2022/06/08 01:37:38;;;;;;;11.63;10.53;;;;;;;;;;4925285;29;20232;-70
2022/06/08 01:40:19;;;;;;;10.47;9.57;;;;;;;;;;4925229;28;20964;-70
2022/06/08 01:43:02;;;;;;;10.40;9.43;;;;;;;;;;4900752;29;20646;-70
2022/06/08 01:45:56;;;;;;;11.60;10.43;;;;;;;;;;4912518;29;20238;-70
2022/06/08 01:48:45;;;;;;;11.17;9.97;;;;;;;;;;4915297;28;20227;-68
2022/06/08 01:51:31;;;;;;;10.87;9.80;;;;;;;;;;4929192;28;20236;-69
2022/06/08 01:54:10;;;;;;;11.77;10.40;;;;;;;;;;4920951;29;20235;-70
2022/06/08 01:56:38;;;;;;;12.20;11.00;;;;;;;;;;4944113;28;20318;-69
2022/06/08 01:59:19;;;;;;;10.93;9.93;;;;;;;;;;4930057;28;20231;-70
2022/06/08 02:01:57;;;;;;;12.07;10.97;;;;;;;;;;4946532;28;20227;-69
2022/06/08 02:04:33;;;;;;;11.83;10.50;;;;;;;;;;4933647;28;20786;-68
2022/06/08 02:06:59;;;;;;;12.03;10.93;;;;;;;;;;4910337;29;20763;-69
2022/06/08 02:09:35;;;;;;;11.50;10.50;;;;;;;;;;4932465;28;20276;-68
2022/06/08 02:12:06;;;;;;;12.03;10.73;;;;;;;;;;4931395;29;20231;-69
2022/06/08 02:15:18;;;;;;;11.77;10.67;;;;;;;;;;4904806;29;20424;-69
2022/06/08 02:17:57;;;;;;;11.47;10.47;;;;;;;;;;4937205;29;20225;-70
2022/06/08 02:20:46;;;;;;;11.37;10.27;;;;;;;;;;4913836;29;20223;-69
2022/06/08 02:23:22;;;;;;;11.57;10.37;;;;;;;;;;4899447;28;20239;-70
2022/06/08 02:25:55;;;;;;;11.63;10.53;;;;;;;;;;4908220;29;20235;-70
2022/06/08 02:28:40;;;;;;;10.97;9.97;;;;;;;;;;4898150;28;20314;-70
2022/06/08 02:31:26;;;;;;;10.47;9.47;;;;;;;;;;4926183;28;20290;-70
2022/06/08 02:36:48;;;;;;;10.13;9.23;;;;;;;;;;4927918;29;20230;-69
2022/06/08 02:39:16;;;;;;;10.73;9.73;;;;;;;;;;4917026;28;20235;-70
2022/06/08 02:41:44;;;;;;;10.57;9.57;;;;;;;;;;4932083;29;20265;-70
2022/06/08 02:44:14;;;;;;;10.73;9.80;;;;;;;;;;4913144;28;20227;-70
2022/06/08 02:47:00;;;;;;;10.37;9.47;;;;;;;;;;4882393;29;20227;-70
2022/06/08 02:49:33;;;;;;;9.83;8.93;;;;;;;;;;4917055;29;20238;-71
2022/06/08 02:52:10;;;;;;;9.13;8.33;;;;;;;;;;4936717;28;20704;-72
2022/06/08 02:54:36;;;;;;;9.40;8.47;;;;;;;;;;4902441;29;20231;-69
2022/06/08 02:57:39;;;;;;;8.87;8.07;;;;;;;;;;4933127;28;20219;-69
2022/06/08 03:00:08;;;;;;;9.13;8.33;;;;;;;;;;4916371;28;20223;-69
2022/06/08 03:03:04;;;;;;;9.50;8.70;;;;;;;;;;4929424;28;20220;-70
2022/06/08 03:05:35;;;;;;;9.83;8.80;;;;;;;;;;4907734;29;20246;-72
2022/06/08 03:08:20;;;;;;;9.07;8.27;;;;;;;;;;4954636;28;20230;-71
2022/06/08 03:10:47;;;;;;;9.07;8.27;;;;;;;;;;4900163;29;20223;-72
2022/06/08 03:13:18;;;;;;;10.80;9.87;;;;;;;;;;4933147;28;20291;-71
2022/06/08 03:15:52;;;;;;;11.13;10.03;;;;;;;;;;4919395;29;20228;-69
2022/06/08 03:18:18;;;;;;;11.30;10.20;;;;;;;;;;4933779;28;20222;-71
2022/06/08 03:20:44;;;;;;;11.60;10.50;;;;;;;;;;4903718;29;20694;-69
2022/06/08 03:23:11;;;;;;;11.20;10.20;;;;;;;;;;4930619;28;20235;-73
2022/06/08 03:25:36;;;;;;;11.37;10.33;;;;;;;;;;4922636;29;20230;-71
2022/06/08 03:28:03;;;;;;;11.43;10.33;;;;;;;;;;4907416;28;20228;-71
2022/06/08 03:30:29;;;;;;;10.97;9.97;;;;;;;;;;4933600;29;20303;-71
2022/06/08 03:32:58;;;;;;;10.67;9.67;;;;;;;;;;4897912;29;20227;-70
2022/06/08 03:35:24;;;;;;;10.87;9.87;;;;;;;;;;4918046;28;20219;-69
2022/06/08 03:37:50;;;;;;;10.50;9.53;;;;;;;;;;4914498;29;20390;-69
2022/06/08 03:40:21;;;;;;;10.43;9.43;;;;;;;;;;4914405;28;20912;-70
2022/06/08 03:42:51;;;;;;;10.73;9.80;;;;;;;;;;4880025;29;20318;-69
2022/06/08 03:45:16;;;;;;;10.43;9.43;;;;;;;;;;4885442;28;20294;-69
2022/06/08 03:47:50;;;;;;;9.77;8.77;;;;;;;;;;4911119;29;20223;-69
2022/06/08 03:50:21;;;;;;;9.33;8.37;;;;;;;;;;4883823;28;20231;-70
2022/06/08 03:52:58;;;;;;;8.97;8.27;;;;;;;;;;4915429;28;20320;-71
2022/06/08 03:55:24;;;;;;;8.77;7.97;;;;;;;;;;4912833;28;20219;-70
2022/06/08 03:57:50;;;;;;;8.73;7.87;;;;;;;;;;4913983;29;20238;-71
2022/06/08 04:00:17;;;;;;;8.70;7.80;;;;;;;;;;4928139;28;20223;-71
2022/06/08 04:02:46;;;;;;;8.60;7.80;;;;;;;;;;4926544;28;20286;-71
2022/06/08 04:05:18;;;;;;;8.13;7.43;;;;;;;;;;4909467;28;20230;-71
2022/06/08 04:07:45;;;;;;;8.90;8.13;;;;;;;;;;4912590;29;20223;-72
2022/06/08 04:10:11;;;;;;;8.40;7.70;;;;;;;;;;4912251;28;20227;-70
2022/06/08 04:12:37;;;;;;;8.80;8.00;;;;;;;;;;4919094;28;20338;-71
2022/06/08 04:15:04;;;;;;;8.80;8.00;;;;;;;;;;4911963;28;20226;-72
2022/06/08 04:17:30;;;;;;;9.00;8.10;;;;;;;;;;4897322;29;20223;-69
2022/06/08 04:19:56;;;;;;;8.67;7.97;;;;;;;;;;4897741;29;20238;-70
2022/06/08 04:22:22;;;;;;;8.97;8.17;;;;;;;;;;4911655;28;20694;-69
2022/06/08 04:24:49;;;;;;;9.13;8.33;;;;;;;;;;4908183;29;20270;-70
2022/06/08 04:27:19;;;;;;;10.83;8.63;;;;;;;;;;4920811;28;20223;-69
2022/06/08 04:29:48;;;;;;;9.30;8.50;;;;;;;;;;4896758;29;20223;-69
2022/06/08 04:32:14;;;;;;;10.17;8.97;;;;;;;;;;4909963;28;20305;-69
2022/06/08 04:34:43;;;;;;;10.10;9.07;;;;;;;;;;4912121;29;20851;-69
2022/06/08 04:37:12;;;;;;;9.87;8.87;;;;;;;;;;4927949;28;20231;-70
2022/06/08 04:39:42;;;;;;;9.90;9.00;;;;;;;;;;4929500;28;20210;-69
2022/06/08 04:42:11;;;;;;;9.70;8.70;;;;;;;;;;4896542;28;20239;-70
2022/06/08 04:44:41;;;;;;;9.20;8.40;;;;;;;;;;4929201;29;20219;-72
2022/06/08 04:47:12;;;;;;;8.53;7.83;;;;;;;;;;4896897;28;21061;-71
2022/06/08 04:49:39;;;;;;;8.37;7.67;;;;;;;;;;4912816;29;20709;-72
2022/06/08 04:52:07;;;;;;;8.43;7.67;;;;;;;;;;4931802;28;20219;-71
2022/06/08 04:54:34;;;;;;;8.33;7.53;;;;;;;;;;4931450;29;20230;-70
2022/06/08 04:57:02;;;;;;;8.40;7.47;;;;;;;;;;4930017;28;20227;-71
2022/06/08 04:59:30;;;;;;;8.15;7.45;;;;;;;;;;4926190;28;20231;-71
2022/06/08 05:02:42;;;;;;;8.43;7.60;;;;;;;;;;4898889;28;20227;-71
2022/06/08 05:05:00;;;;;;;8.48;7.70;;;;;;;;;;4898914;29;20224;-70
2022/06/08 05:07:29;;;;;;;8.40;7.70;;;;;;;;;;4927079;28;20358;-71
2022/06/08 05:09:55;;;;;;;8.15;7.45;;;;;;;;;;4926697;28;20224;-70
2022/06/08 05:12:22;;;;;;;7.88;7.18;;;;;;;;;;4878950;28;22305;-72
2022/06/08 05:14:48;;;;;;;7.80;6.87;;;;;;;;;;4907079;29;20286;-70
2022/06/08 05:17:15;;;;;;;8.03;7.23;;;;;;;;;;4913996;28;20228;-71
2022/06/08 05:19:42;;;;;;;7.77;6.97;;;;;;;;;;4916167;29;20224;-70
2022/06/08 05:22:09;;;;;;;8.20;7.50;;;;;;;;;;4919839;28;20869;-71
2022/06/08 05:24:35;;;;;;;8.20;7.50;;;;;;;;;;4921542;29;20311;-71
2022/06/08 05:27:01;;;;;;;8.57;7.70;;;;;;;;;;4915676;29;20231;-71
2022/06/08 05:29:29;;;;;;;8.50;7.80;;;;;;;;;;4927729;29;20540;-69
2022/06/08 05:31:59;;;;;;;8.50;7.80;;;;;;;;;;4900230;29;20694;-71
2022/06/08 05:34:30;;;;;;;9.20;8.30;;;;;;;;;;4945372;28;20705;-70
2022/06/08 05:36:58;;;;;;;9.07;8.17;;;;;;;;;;4916340;29;20224;-72
2022/06/08 05:39:35;;;;;;;9.10;7.13;;;;;;;;;;4925712;28;21055;-73
2022/06/08 05:42:08;;;;;;;8.40;7.55;;;;;;;;;;4923175;28;20325;-71
2022/06/08 05:47:58;;;;;;;7.97;7.18;;;;;;;;;;4952911;28;20310;-72
2022/06/08 05:50:36;;;;;;;12.13;7.40;;;;;;;;;;4924843;28;20231;-74
2022/06/08 05:53:41;;;;;;;8.85;7.43;;;;;;;;;;4928091;29;20219;-73
2022/06/08 05:56:09;;;;;;;7.90;7.10;;;;;;;;;;4917861;28;20246;-72
2022/06/08 05:59:10;;;;;;;7.95;7.25;;;;;;;;;;4928689;29;20273;-71
2022/06/08 06:01:49;;;;;;;8.25;7.50;;;;;;;;;;4927147;29;20980;-70
2022/06/08 06:04:23;;;;;;;7.47;6.82;;;;;;;;;;4904263;28;20256;-71
2022/06/08 06:07:03;;;;;;;8.60;7.80;;;;;;;;;;4912645;29;20302;-71
2022/06/08 06:09:35;;;;;;;9.05;7.68;;;;;;;;;;4939305;28;20238;-72
2022/06/08 06:12:05;;;;;;;8.65;7.28;;;;;;;;;;4909461;28;20297;-71
2022/06/08 06:14:35;;;;;;;8.10;7.30;;;;;;;;;;4937690;28;20231;-71
2022/06/08 06:17:01;;;;;;;8.70;7.93;;;;;;;;;;4933991;28;20224;-69
2022/06/08 06:19:27;;;;;;;7.38;6.75;;;;;;;;;;4916984;29;20226;-70
2022/06/08 06:22:27;;;;;;;8.75;7.85;;;;;;;;;;4926667;28;20311;-71
2022/06/08 06:25:01;;;;;;;8.25;7.45;;;;;;;;;;4921608;29;20235;-71
2022/06/08 06:27:46;;;;;;;8.45;7.45;;;;;;;;;;4930461;28;20720;-69
2022/06/08 06:30:32;;;;;;;12.02;7.22;;;;;;;;;;4929305;28;20238;-70
2022/06/08 06:33:16;;;;;;;9.45;7.43;;;;;;;;;;4902784;28;20302;-70
2022/06/08 06:35:46;;;;;;;7.85;7.00;;;;;;;;;;4915580;29;20224;-70
2022/06/08 06:38:12;;;;;;;8.23;7.30;;;;;;;;;;4899271;28;20719;-70
2022/06/08 06:40:39;;;;;;;11.60;7.28;;;;;;;;;;4913803;29;20227;-70
2022/06/08 06:43:06;;;;;;;8.30;7.22;;;;;;;;;;4897806;28;20298;-70
2022/06/08 06:45:35;;;;;;;9.35;8.27;;;;;;;;;;4922489;29;20702;-69
2022/06/08 06:48:25;;;;;;;9.88;7.57;;;;;;;;;;4903129;28;20231;-69
2022/06/08 06:51:15;;;;;;;7.82;7.05;;;;;;;;;;4894586;29;20261;-71
2022/06/08 06:54:08;;;;;;;9.40;8.25;;;;;;;;;;4935620;28;20233;-70
2022/06/08 06:56:43;;;;;;;8.82;8.02;;;;;;;;;;4927658;29;20769;-70
2022/06/08 06:59:16;;;;;;;9.65;8.75;;;;;;;;;;4929169;28;20220;-71
2022/06/08 07:01:43;;;;;;;9.07;8.25;;;;;;;;;;4913820;28;20232;-72
2022/06/08 07:04:10;;;;;;;9.95;8.52;;;;;;;;;;4913266;28;20849;-71
2022/06/08 07:06:36;;;;;;;9.80;8.80;;;;;;;;;;4903142;29;20330;-71
2022/06/08 07:09:06;;;;;;;9.55;8.75;;;;;;;;;;4898244;28;20223;-71
2022/06/08 07:11:43;;;;;;;9.32;8.48;;;;;;;;;;4926374;28;20605;-71
2022/06/08 07:14:17;;;;;;;10.18;9.27;;;;;;;;;;4915536;28;20624;-72
2022/06/08 07:16:47;;;;;;;10.85;9.30;;;;;;;;;;4963110;28;20639;-72
2022/06/08 07:19:52;;;;;;;9.15;8.30;;;;;;;;;;4916148;28;20215;-71
2022/06/08 07:22:31;;;;;;;9.77;8.77;;;;;;;;;;4941866;28;20220;-71
2022/06/08 07:24:57;;;;;;;9.70;8.80;;;;;;;;;;4929467;28;20254;-71
2022/06/08 07:27:23;;;;;;;10.40;9.40;;;;;;;;;;4927449;28;20227;-69
2022/06/08 07:29:50;;;;;;;10.23;9.13;;;;;;;;;;4915158;29;20236;-71
2022/06/08 07:32:15;;;;;;;10.57;9.45;;;;;;;;;;4927993;28;20227;-70
2022/06/08 07:34:44;;;;;;;10.82;9.80;;;;;;;;;;4913576;29;20228;-71
2022/06/08 07:37:10;;;;;;;15.48;14.02;;;;;;;;;;4916253;28;20245;-70
2022/06/08 07:39:36;;;;;;;15.65;14.00;;;;;;;;;;4910919;29;20220;-70
2022/06/08 07:42:03;;;;;;;14.65;13.35;;;;;;;;;;4905054;28;20612;-71
2022/06/08 07:44:29;;;;;;;19.17;17.38;;;;;;;;;;4900356;29;20716;-74
2022/06/08 07:46:57;;;;;;;19.88;17.90;;;;;;;;;;4901607;29;20661;-71
2022/06/08 07:49:45;;;;;;;18.60;16.67;;;;;;;;;;4912691;28;20235;-72
2022/06/08 07:52:21;;;;;;;20.70;18.77;;;;;;;;;;4920528;28;20640;-71
2022/06/08 07:54:47;;;;;;;23.63;20.55;;;;;;;;;;4912295;29;20219;-70
2022/06/08 07:57:23;;;;;;;22.42;20.23;;;;;;;;;;4895196;28;20302;-70
2022/06/08 07:59:49;;;;;;;20.63;18.85;;;;;;;;;;4917643;29;20219;-72
2022/06/08 08:02:14;;;;;;;21.98;19.77;;;;;;;;;;4895049;28;20216;-71
2022/06/08 08:04:40;;;;;;;22.35;20.40;;;;;;;;;;4911913;29;20240;-71
2022/06/08 08:07:11;;;;;;;21.50;19.27;;;;;;;;;;4908243;28;20747;-71
2022/06/08 08:09:38;;;;;;;20.38;18.38;;;;;;;;;;4903594;28;20238;-71
2022/06/08 08:12:06;;;;;;;19.25;17.55;;;;;;;;;;4912730;28;20714;-71
2022/06/08 08:14:34;;;;;;;20.20;18.30;;;;;;;;;;4928369;28;20281;-70
2022/06/08 08:17:03;;;;;;;20.10;18.40;;;;;;;;;;4914993;28;20792;-70
2022/06/08 08:19:32;;;;;;;20.38;18.67;;;;;;;;;;4907087;29;20310;-70
2022/06/08 08:22:00;;;;;;;19.27;17.67;;;;;;;;;;4920299;29;20333;-71
2022/06/08 08:24:29;;;;;;;19.90;18.10;;;;;;;;;;4895159;29;20861;-70
2022/06/08 08:26:56;;;;;;;19.98;18.08;;;;;;;;;;4891054;29;20803;-70
2022/06/08 08:29:21;;;;;;;20.58;18.73;;;;;;;;;;4875919;29;20695;-71
2022/06/08 08:31:49;;;;;;;20.75;18.92;;;;;;;;;;4910092;29;20240;-71
2022/06/08 08:34:20;;;;;;;18.38;16.75;;;;;;;;;;4927730;29;20236;-72
2022/06/08 08:36:46;;;;;;;21.52;19.45;;;;;;;;;;4898183;29;20227;-71
2022/06/08 08:39:11;;;;;;;19.67;17.98;;;;;;;;;;4900386;29;20229;-72
2022/06/08 08:44:47;;;;;;;22.33;20.23;;;;;;;;;;4895196;29;20730;-72
2022/06/08 08:47:34;;;;;;;22.48;20.45;;;;;;;;;;4890779;29;20259;-70
2022/06/08 08:50:02;;;;;;;22.80;20.60;;;;;;;;;;4906627;29;20232;-70
2022/06/08 08:52:48;;;;;;;23.17;21.08;;;;;;;;;;4894880;29;20655;-70
2022/06/08 08:55:19;;;;;;;21.63;19.50;;;;;;;;;;4910880;29;20789;-71
2022/06/08 08:58:23;;;;;;;22.55;20.45;;;;;;;;;;4896092;29;20238;-70
2022/06/08 09:01:00;;;;;;;20.98;19.10;;;;;;;;;;4879770;29;20744;-70
2022/06/08 09:03:43;;;;;;;22.25;20.15;;;;;;;;;;4874702;29;20315;-71
2022/06/08 09:06:21;;;;;;;20.60;18.80;;;;;;;;;;4907736;29;20315;-70
2022/06/08 09:08:55;;;;;;;20.95;18.85;;;;;;;;;;4908212;29;20223;-71
2022/06/08 09:11:24;;;;;;;22.27;20.25;;;;;;;;;;4901774;29;20263;-71
2022/06/08 09:14:14;;;;;;;20.40;18.52;;;;;;;;;;4907101;29;20311;-70
2022/06/08 09:16:45;;;;;;;21.70;19.73;;;;;;;;;;4898397;29;20228;-71
2022/06/08 09:19:24;;;;;;;23.05;20.63;;;;;;;;;;4912045;29;20236;-71
2022/06/08 09:21:54;;;;;;;21.83;19.92;;;;;;;;;;4898385;29;20637;-71
2022/06/08 09:24:28;;;;;;;20.30;18.42;;;;;;;;;;4910673;29;20680;-72
2022/06/08 09:26:55;;;;;;;20.55;18.65;;;;;;;;;;4913288;29;20235;-70
2022/06/08 09:29:24;;;;;;;19.77;17.98;;;;;;;;;;4895855;29;20763;-70
2022/06/08 09:31:54;;;;;;;19.90;17.92;;;;;;;;;;4927724;29;20270;-69
2022/06/08 09:34:19;;;;;;;16.77;15.32;;;;;;;;;;4912013;29;20280;-70
2022/06/08 09:36:46;;;;;;;14.77;13.48;;;;;;;;;;4907101;29;20231;-70
2022/06/08 09:39:14;;;;;;;13.45;12.20;;;;;;;;;;4877448;29;20248;-71
2022/06/08 09:41:46;;;;;;;13.38;11.90;;;;;;;;;;4906159;29;20234;-71
2022/06/08 09:44:26;;;;;;;13.98;12.68;;;;;;;;;;4896893;29;20771;-70
2022/06/08 09:53:05;;;;;;;11.60;10.60;;;;;;;;;;4929165;29;20230;-70
2022/06/08 09:55:44;;;;;;;12.48;11.38;;;;;;;;;;4908863;29;20311;-70
2022/06/08 09:58:32;;;;;;;13.25;11.82;;;;;;;;;;4895663;29;20221;-70
2022/06/08 10:01:06;;;;;;;12.60;11.40;;;;;;;;;;4896530;29;20228;-70
2022/06/08 10:03:44;;;;;;;11.65;10.60;;;;;;;;;;4909144;29;20231;-70
2022/06/08 10:06:26;;;;;;;10.55;9.65;;;;;;;;;;4927110;29;20227;-71
2022/06/08 10:09:17;;;;;;;10.98;9.98;;;;;;;;;;4912528;29;20248;-70
2022/06/08 10:12:06;;;;;;;10.80;9.80;;;;;;;;;;4893323;29;20233;-72
2022/06/08 10:14:48;;;;;;;9.45;8.55;;;;;;;;;;4881399;29;20315;-71
2022/06/08 10:17:29;;;;;;;10.32;9.52;;;;;;;;;;4911521;29;20744;-71
2022/06/08 10:20:14;;;;;;;8.57;7.35;;;;;;;;;;4925088;29;20221;-70
2022/06/08 10:22:47;;;;;;;9.07;8.25;;;;;;;;;;4910605;29;20223;-70
2022/06/08 10:25:13;;;;;;;7.85;7.15;;;;;;;;;;4898275;29;20220;-73
2022/06/08 10:27:55;;;;;;;7.10;6.50;;;;;;;;;;4892578;29;20256;-70
2022/06/08 10:30:31;;;;;;;8.45;6.25;;;;;;;;;;4886409;28;20251;-70
2022/06/08 10:33:03;;;;;;;7.85;7.05;;;;;;;;;;4910358;29;20259;-70
2022/06/08 10:35:43;;;;;;;7.88;6.60;;;;;;;;;;4910297;29;20226;-71
2022/06/08 10:38:31;;;;;;;6.18;5.68;;;;;;;;;;4888739;29;20699;-70
2022/06/08 10:43:58;;;;;;;5.82;5.40;;;;;;;;;;4899094;29;21031;-72
2022/06/08 10:46:38;;;;;;;6.78;6.18;;;;;;;;;;4892469;29;20700;-71
2022/06/08 10:49:04;;;;;;;6.72;6.13;;;;;;;;;;4877287;29;20232;-72
2022/06/08 10:51:37;;;;;;;6.57;6.07;;;;;;;;;;4879677;29;20224;-71
2022/06/08 10:57:32;;;;;;;5.50;5.10;;;;;;;;;;4905534;28;20220;-73
2022/06/08 11:00:19;;;;;;;5.50;5.07;;;;;;;;;;4907780;29;20231;-71
2022/06/08 11:02:55;;;;;;;5.63;4.97;;;;;;;;;;4924579;29;20719;-70
2022/06/08 11:05:40;;;;;;;5.85;5.38;;;;;;;;;;4913773;29;20226;-72
2022/06/08 11:08:09;;;;;;;5.75;5.25;;;;;;;;;;4909652;29;20216;-71
2022/06/08 11:10:44;;;;;;;5.45;4.97;;;;;;;;;;4910660;29;20718;-71
2022/06/08 11:13:24;;;;;;;4.75;4.45;;;;;;;;;;4911329;28;20231;-69
2022/06/08 11:15:56;;;;;;;5.22;4.78;;;;;;;;;;4891115;29;20240;-74
2022/06/08 11:18:37;;;;;;;4.32;3.95;;;;;;;;;;4876837;29;20296;-71
2022/06/08 11:21:15;;;;;;;4.38;4.05;;;;;;;;;;4897892;29;20820;-71
2022/06/08 11:23:48;;;;;;;4.50;3.40;;;;;;;;;;4890788;29;20228;-71
2022/06/08 11:26:23;;;;;;;4.60;4.20;;;;;;;;;;4908657;29;20252;-70
2022/06/08 11:29:20;;;;;;;4.10;3.80;;;;;;;;;;4927404;29;20730;-69
2022/06/08 11:31:51;;;;;;;4.20;3.90;;;;;;;;;;4923694;29;20283;-70
2022/06/08 11:34:20;;;;;;;4.20;3.90;;;;;;;;;;4878447;29;20247;-71
2022/06/08 11:36:58;;;;;;;3.97;3.67;;;;;;;;;;4910986;29;20665;-71
2022/06/08 11:39:53;;;;;;;4.65;4.25;;;;;;;;;;4908762;29;20227;-70
2022/06/08 11:42:32;;;;;;;4.07;3.78;;;;;;;;;;4903532;29;20627;-71
2022/06/08 11:45:23;;;;;;;4.07;3.67;;;;;;;;;;4890464;29;20703;-72
2022/06/08 11:47:49;;;;;;;3.92;3.63;;;;;;;;;;4909504;29;20601;-71
2022/06/08 11:50:36;;;;;;;3.60;3.30;;;;;;;;;;4923321;29;20283;-73
2022/06/08 11:53:05;;;;;;;4.03;3.72;;;;;;;;;;4895600;29;20275;-71
2022/06/08 11:55:34;;;;;;;4.25;3.70;;;;;;;;;;4893624;29;20648;-72
2022/06/08 11:58:05;;;;;;;3.97;3.42;;;;;;;;;;4911467;29;20303;-70
2022/06/08 12:00:36;;;;;;;3.25;3.05;;;;;;;;;;4920842;29;20316;-72
2022/06/08 12:03:17;;;;;;;3.70;3.40;;;;;;;;;;4903830;29;20255;-72
2022/06/08 12:05:50;;;;;;;3.92;3.63;;;;;;;;;;4894440;29;20232;-73
2022/06/08 12:08:51;;;;;;;3.65;3.38;;;;;;;;;;4876879;29;20226;-72
2022/06/08 12:11:19;;;;;;;3.50;3.30;;;;;;;;;;4851757;29;20926;-74
2022/06/08 12:14:37;;;;;;;3.83;3.53;;;;;;;;;;4896714;29;20690;-73
2022/06/08 12:17:33;;;;;;;4.30;3.92;;;;;;;;;;4915917;29;20228;-73
2022/06/08 12:20:03;;;;;;;4.05;3.75;;;;;;;;;;4874041;29;20224;-72
2022/06/08 12:22:34;;;;;;;4.00;3.53;;;;;;;;;;4872658;29;20656;-73
2022/06/08 12:25:10;;;;;;;4.30;4.00;;;;;;;;;;4889292;29;20282;-73
2022/06/08 12:27:42;;;;;;;3.85;3.55;;;;;;;;;;4908342;29;20264;-71
2022/06/08 12:30:21;;;;;;;5.00;3.78;;;;;;;;;;4906793;29;20801;-74
2022/06/08 12:32:52;;;;;;;3.75;3.40;;;;;;;;;;4922046;28;20823;-72
2022/06/08 12:35:34;;;;;;;4.43;4.00;;;;;;;;;;4877765;29;20254;-72
2022/06/08 12:38:20;;;;;;;3.60;3.30;;;;;;;;;;4891387;28;20236;-73
2022/06/08 12:41:01;;;;;;;3.90;3.25;;;;;;;;;;4907640;29;20315;-72
2022/06/08 12:43:38;;;;;;;3.10;2.90;;;;;;;;;;4904914;29;20232;-71
2022/06/08 12:46:15;;;;;;;3.40;3.20;;;;;;;;;;4907444;29;20616;-73
2022/06/08 12:48:42;;;;;;;3.28;3.08;;;;;;;;;;4909757;29;20298;-70
2022/06/08 12:51:33;;;;;;;3.20;2.90;;;;;;;;;;4908223;29;20238;-72
2022/06/08 12:54:01;;;;;;;2.65;2.42;;;;;;;;;;4930057;29;20598;-71
2022/06/08 12:56:27;;;;;;;2.60;2.40;;;;;;;;;;4895616;29;20231;-72
2022/06/08 12:58:54;;;;;;;3.40;2.72;;;;;;;;;;4893653;29;20702;-72
2022/06/08 13:01:20;;;;;;;2.75;2.55;;;;;;;;;;4907141;28;20228;-70
2022/06/08 13:03:46;;;;;;;2.58;2.38;;;;;;;;;;4893643;29;20821;-71
2022/06/08 13:06:12;;;;;;;2.85;2.30;;;;;;;;;;4908334;29;20220;-71
2022/06/08 13:08:38;;;;;;;2.40;2.22;;;;;;;;;;4909772;29;20319;-71
2022/06/08 13:11:05;;;;;;;2.47;2.28;;;;;;;;;;4893210;29;20390;-69
2022/06/08 13:13:33;;;;;;;2.75;2.50;;;;;;;;;;4907592;29;20778;-72
2022/06/08 13:16:05;;;;;;;2.60;2.40;;;;;;;;;;4911319;29;20228;-71
2022/06/08 13:18:35;;;;;;;2.55;2.35;;;;;;;;;;4863249;29;20774;-72
2022/06/08 13:21:02;;;;;;;2.20;2.10;;;;;;;;;;4887363;29;21221;-71
2022/06/08 13:23:27;;;;;;;2.53;2.33;;;;;;;;;;4919751;29;20775;-72
2022/06/08 13:25:54;;;;;;;2.17;1.98;;;;;;;;;;4888920;29;20319;-71
2022/06/08 13:28:22;;;;;;;2.35;2.15;;;;;;;;;;4889316;29;20220;-71
2022/06/08 13:30:52;;;;;;;2.25;2.05;;;;;;;;;;4906708;29;20726;-72
2022/06/08 13:36:18;;;;;;;2.35;2.15;;;;;;;;;;4907272;29;20307;-71
2022/06/08 13:38:46;;;;;;;2.17;1.95;;;;;;;;;;4901974;29;20220;-71
2022/06/08 13:41:12;;;;;;;3.83;2.10;;;;;;;;;;4874590;29;20602;-72
2022/06/08 13:43:39;;;;;;;3.47;1.80;;;;;;;;;;4891774;29;20312;-70
2022/06/08 13:46:07;;;;;;;2.75;1.92;;;;;;;;;;4890531;29;20734;-73
2022/06/08 13:48:33;;;;;;;2.20;2.10;;;;;;;;;;4879514;29;20213;-71
2022/06/08 13:51:00;;;;;;;2.25;2.10;;;;;;;;;;4878036;29;20301;-69
2022/06/08 13:53:30;;;;;;;6.50;2.58;;;;;;;;;;4893751;29;20229;-71
2022/06/08 13:56:01;;;;;;;2.22;2.10;;;;;;;;;;4904660;29;20745;-70
2022/06/08 13:58:28;;;;;;;2.05;1.95;;;;;;;;;;4896719;29;20590;-70
2022/06/08 14:01:00;;;;;;;1.92;1.80;;;;;;;;;;4895616;29;20600;-71
2022/06/08 14:03:30;;;;;;;2.20;2.00;;;;;;;;;;4906354;29;20308;-73
2022/06/08 14:14:22;;;;;;;1.70;1.60;;;;;;;;;;4895759;29;20225;-71
2022/06/08 14:16:52;;;;;;;1.98;1.77;;;;;;;;;;4893542;29;20294;-70
2022/06/08 14:19:30;;;;;;;1.48;1.38;;;;;;;;;;4875807;29;20224;-72
2022/06/08 14:21:59;;;;;;;1.50;1.40;;;;;;;;;;4890466;29;20228;-70
2022/06/08 14:24:30;;;;;;;1.50;1.40;;;;;;;;;;4876361;29;20304;-72
2022/06/08 14:26:57;;;;;;;1.52;1.42;;;;;;;;;;4914633;28;20232;-72
2022/06/08 14:29:23;;;;;;;1.50;1.40;;;;;;;;;;4895762;29;20710;-70
2022/06/08 14:31:49;;;;;;;1.65;1.55;;;;;;;;;;4903177;29;20248;-73
2022/06/08 14:34:24;;;;;;;2.17;1.60;;;;;;;;;;4892816;29;20307;-69
2022/06/08 14:36:50;;;;;;;1.83;1.58;;;;;;;;;;4883504;29;20718;-72
2022/06/08 14:39:17;;;;;;;1.55;1.33;;;;;;;;;;4892396;29;20241;-72
2022/06/08 14:41:43;;;;;;;2.05;1.35;;;;;;;;;;4900107;29;20626;-71
2022/06/08 14:44:20;;;;;;;1.63;1.52;;;;;;;;;;4873993;29;20292;-71
2022/06/08 14:46:51;;;;;;;1.60;1.50;;;;;;;;;;4889022;29;20263;-74
2022/06/08 14:49:23;;;;;;;1.80;1.70;;;;;;;;;;4891960;29;20232;-69
2022/06/08 14:51:53;;;;;;;2.45;1.50;;;;;;;;;;4882474;29;20331;-74
2022/06/08 14:54:23;;;;;;;1.55;1.45;;;;;;;;;;4877094;29;20225;-71
2022/06/08 14:57:05;;;;;;;1.90;1.70;;;;;;;;;;4906932;29;20225;-72
2022/06/08 14:59:32;;;;;;;1.35;1.25;;;;;;;;;;4911408;29;20546;-73
2022/06/08 15:01:58;;;;;;;1.83;1.70;;;;;;;;;;4910229;29;20228;-72
2022/06/08 15:04:26;;;;;;;1.40;1.30;;;;;;;;;;4898964;29;20289;-71
2022/06/08 15:06:52;;;;;;;2.10;1.48;;;;;;;;;;4878679;29;20228;-71
2022/06/08 15:09:22;;;;;;;1.85;1.65;;;;;;;;;;4913120;28;20328;-72
2022/06/08 15:11:58;;;;;;;1.50;1.40;;;;;;;;;;4896423;29;20309;-70
2022/06/08 15:14:49;;;;;;;1.73;1.63;;;;;;;;;;4908141;29;20759;-70
2022/06/08 15:17:23;;;;;;;1.63;1.42;;;;;;;;;;4901779;29;20750;-70
2022/06/08 15:19:54;;;;;;;2.38;1.55;;;;;;;;;;4875553;29;20224;-69
2022/06/08 15:22:26;;;;;;;1.50;1.40;;;;;;;;;;4909212;29;20237;-71
2022/06/08 15:24:52;;;;;;;1.70;1.48;;;;;;;;;;4909966;29;20749;-72
2022/06/08 15:27:28;;;;;;;1.40;1.30;;;;;;;;;;4869305;29;20271;-72
2022/06/08 15:29:57;;;;;;;2.25;1.40;;;;;;;;;;4882636;29;20631;-72
2022/06/08 15:32:24;;;;;;;1.50;1.40;;;;;;;;;;4900227;29;20232;-70
2022/06/08 15:34:52;;;;;;;1.75;1.30;;;;;;;;;;4908887;29;20224;-70
2022/06/08 15:37:25;;;;;;;1.30;1.20;;;;;;;;;;4891260;29;20221;-70
2022/06/08 15:39:54;;;;;;;1.33;1.20;;;;;;;;;;4892962;29;20239;-72
2022/06/08 15:42:25;;;;;;;1.30;1.20;;;;;;;;;;4876651;29;20217;-71